CW4778 Auckland NZ current weather conditions

sailwx.info

Wind from 274 at 11 knots gusting 18

Air temperature 20.6° C
Dewpoint 13.3° C

Last reported at 2017-Jan-19 22:28 UTC.
Time now 2017-Jan-19 23:39 UTC

Location: S 36°52' E 174°44'.
View on Google Maps.

See reports from other nearby stations

  
Tides and Currents Weather Stations Pressure Air Temp Water Temp Dewpoint Dewpoint Depression Visibility Wind Speed Wind Dir Waves Ship Positions
date/time (UTC)wind fromknots sea level pressurealtimeterstation pressurevisibilityair tempwater tempwave heightnotes
2017-Jan-19 22:28 274 11 gusting 18 20.6
2017-Jan-19 22:18 246 11 gusting 18 19.4
2017-Jan-19 22:08 241 8 gusting 14 18.9
2017-Jan-19 21:48 274 4 gusting 11 16.1
2017-Jan-19 21:28 231 7 gusting 14 18.9
2017-Jan-19 21:18 217 6 gusting 12 20.0
2017-Jan-19 20:58 289 5 gusting 14 18.3
2017-Jan-19 20:38 228 6 gusting 13 17.2
2017-Jan-19 20:28 299 6 gusting 10 16.1
2017-Jan-19 20:18 262 4 gusting 8 15.6
2017-Jan-19 19:58 248 6 gusting 13 14.4
2017-Jan-19 19:48 264 6 gusting 13 14.4
2017-Jan-19 19:38 220 7 gusting 17 15.0
2017-Jan-19 19:18 252 6 gusting 12 14.4
2017-Jan-19 18:58 308 6 gusting 13 13.3
2017-Jan-19 18:48 287 5 gusting 11 13.3
2017-Jan-19 18:38 269 5 gusting 12 12.8
2017-Jan-19 18:28 262 5 gusting 12 12.2
2017-Jan-19 18:18 267 2 gusting 6 12.2
2017-Jan-19 17:58 237 4 gusting 11 12.2
2017-Jan-19 17:38 256 2 gusting 10 11.7
2017-Jan-19 17:28 258 1 gusting 6 11.7
2017-Jan-19 17:18 283 4 gusting 8 11.7
2017-Jan-19 17:08 262 4 gusting 7 11.7
2017-Jan-19 16:48 284 1 gusting 6 11.7
2017-Jan-19 16:38 308 4 gusting 10 12.2
2017-Jan-19 16:28 250 5 gusting 13 12.2
2017-Jan-19 15:48 222 2 gusting 6 11.7
2017-Jan-19 15:28 311 2 gusting 6 12.2
2017-Jan-19 15:18 323 2 gusting 8 12.2
2017-Jan-19 15:08 272 2 gusting 11 12.2
2017-Jan-19 14:58 310 2 gusting 6 12.2
2017-Jan-19 14:38 222 3 gusting 7 12.2
2017-Jan-19 14:28 313 6 gusting 10 12.2
2017-Jan-19 14:18 257 2 gusting 6 12.2
2017-Jan-19 14:08 250 1 gusting 6 12.2
2017-Jan-19 13:38 316 1 gusting 6 12.8
2017-Jan-19 13:28 258 1 gusting 5 12.8
2017-Jan-19 13:18 254 12.8
2017-Jan-19 13:08 288 1 gusting 6 12.8
2017-Jan-19 12:58 263 12.8
2017-Jan-19 12:48 259 12.8
2017-Jan-19 12:28 267 8 gusting 14 13.3
2017-Jan-19 12:18 245 13.3
2017-Jan-19 12:08 250 13.3
2017-Jan-19 11:58 244 13.3
2017-Jan-19 11:48 262 2 gusting 7 13.3
2017-Jan-19 11:28 296 2 gusting 5 13.3
2017-Jan-19 11:18 334 2 gusting 6 13.3
2017-Jan-19 11:08 335 1 gusting 4 13.3
2017-Jan-19 10:58 313 1 gusting 5 13.3
2017-Jan-19 10:48 325 2 gusting 5 13.9
2017-Jan-19 10:38 327 0 gusting 4 13.9
2017-Jan-19 10:28 334 0 gusting 4 13.9
2017-Jan-19 10:08 295 13.9
2017-Jan-19 09:58 288 13.9
2017-Jan-19 09:48 296 14.4
2017-Jan-19 09:18 296 1 gusting 4 15.0
2017-Jan-19 09:08 257 4 gusting 7 15.6
2017-Jan-19 08:58 287 6 gusting 13 16.7
2017-Jan-19 08:48 262 2 gusting 6 16.1
2017-Jan-19 08:38 348 0 gusting 6 16.1
2017-Jan-19 08:28 275 3 gusting 10 16.1
2017-Jan-19 08:18 262 2 gusting 7 16.1
2017-Jan-19 08:08 314 2 gusting 13 16.7
2017-Jan-19 07:48 335 4 gusting 11 17.2
2017-Jan-19 07:28 335 6 gusting 14 17.8
2017-Jan-19 07:08 298 6 gusting 13 17.8
2017-Jan-19 06:58 304 4 gusting 15 17.8
2017-Jan-19 06:48 324 12 gusting 19 18.3
2017-Jan-19 06:38 287 5 gusting 13 18.3
2017-Jan-19 06:28 255 5 gusting 12 18.9
2017-Jan-19 06:08 242 6 gusting 18 18.9
2017-Jan-19 05:58 231 8 gusting 18 19.4
2017-Jan-19 05:28 253 10 gusting 19 19.4
2017-Jan-19 05:08 289 8 gusting 20 20.0
2017-Jan-19 04:58 336 6 gusting 18 20.6
2017-Jan-19 04:48 312 12 gusting 19 20.6
2017-Jan-19 04:38 322 10 gusting 17 20.6
2017-Jan-19 04:28 236 8 gusting 21 20.6
2017-Jan-19 04:08 276 12 gusting 20 20.6
2017-Jan-19 03:58 250 13 gusting 20 21.1
2017-Jan-19 03:48 251 6 gusting 17 21.1
2017-Jan-19 03:38 260 13 gusting 18 21.1
2017-Jan-19 03:28 249 11 gusting 19 20.6
2017-Jan-19 03:18 245 12 gusting 19 20.6
2017-Jan-19 02:48 20.0
2017-Jan-19 02:28 18.9
2017-Jan-19 02:08 306 10 gusting 17 19.4
2017-Jan-19 01:58 300 8 gusting 15 18.9
2017-Jan-19 01:48 230 7 gusting 13 18.9
2017-Jan-19 01:38 231 7 gusting 13 16.7
2017-Jan-19 01:28 264 2 gusting 10 16.1
2017-Jan-19 01:18 264 6 gusting 8 16.1
2017-Jan-19 01:08 242 5 gusting 8 16.1
2017-Jan-19 00:48 245 1 gusting 7 16.1
2017-Jan-19 00:38 255 1 gusting 10 16.1
2017-Jan-19 00:28 202 2 gusting 13 16.1
2017-Jan-19 00:18 211 6 gusting 12 16.1
2017-Jan-19 00:08 219 5 gusting 15 16.1
2017-Jan-18 23:48 212 8 gusting 18 16.7
2017-Jan-18 23:38 285 4 gusting 12 17.8
2017-Jan-18 23:28 345 11 gusting 15 17.8
2017-Jan-18 23:08 335 7 gusting 18 17.8
2017-Jan-18 22:58 351 11 gusting 14 17.8
2017-Jan-18 22:48 351 7 gusting 17 17.8
2017-Jan-18 22:38 349 8 gusting 15 17.8
2017-Jan-18 22:28 357 9 gusting 15 17.8
2017-Jan-18 21:58 352 8 gusting 14 17.8
2017-Jan-18 21:48 343 6 gusting 12 17.8
2017-Jan-18 21:38 346 7 gusting 11 17.8
2017-Jan-18 21:28 357 7 gusting 13 17.8
2017-Jan-18 21:18 002 6 gusting 10 17.8
2017-Jan-18 21:08 354 6 gusting 15 17.8
2017-Jan-18 20:58 349 10 gusting 12 17.8
2017-Jan-18 20:38 349 7 gusting 13 18.3
2017-Jan-18 20:28 350 10 gusting 13 18.3
2017-Jan-18 20:18 347 9 gusting 13 18.3
2017-Jan-18 20:08 357 8 gusting 15 18.3
2017-Jan-18 19:58 009 7 gusting 13 18.3
2017-Jan-18 19:48 358 8 gusting 13 18.3
2017-Jan-18 19:28 18.3
2017-Jan-18 19:18 022 4 gusting 12 18.3
2017-Jan-18 19:08 353 6 gusting 10 18.3
2017-Jan-18 18:58 352 7 gusting 12 18.3
2017-Jan-18 18:38 353 6 gusting 13 17.8
2017-Jan-18 18:28 005 6 gusting 12 17.8
2017-Jan-18 18:08 351 7 gusting 15 17.8
2017-Jan-18 17:38 339 1 gusting 14 17.2
2017-Jan-18 17:28 342 4 gusting 12 17.2
2017-Jan-18 17:18 312 5 gusting 14 17.2
2017-Jan-18 17:08 342 7 gusting 13 17.2
2017-Jan-18 16:57 319 4 gusting 13 17.2
2017-Jan-18 16:48 17.2
2017-Jan-18 16:38 345 10 gusting 19 17.2
2017-Jan-18 16:07 333 5 gusting 12 17.2
2017-Jan-18 15:58 341 8 gusting 13 17.2
2017-Jan-18 15:48 358 7 gusting 11 17.2
2017-Jan-18 15:38 341 4 gusting 11 17.2
2017-Jan-18 15:28 320 6 gusting 11 17.2
2017-Jan-18 15:18 304 6 gusting 12 16.7
2017-Jan-18 15:08 331 6 gusting 13 16.7
2017-Jan-18 14:38 351 5 gusting 8 16.7
2017-Jan-18 14:18 16.7
2017-Jan-18 14:07 340 6 gusting 12 16.7
2017-Jan-18 13:58 340 5 gusting 13 16.7
2017-Jan-18 13:48 277 4 gusting 10 16.7
2017-Jan-18 13:38 341 4 gusting 13 16.7
2017-Jan-18 13:27 282 5 gusting 7 16.7
2017-Jan-18 13:18 286 2 gusting 10 17.2
2017-Jan-18 13:08 318 4 gusting 8 17.2
2017-Jan-18 12:58 308 5 gusting 10 17.2
2017-Jan-18 12:48 343 5 gusting 13 17.2
2017-Jan-18 12:38 352 6 gusting 11 17.2
2017-Jan-18 12:27 351 6 gusting 13 17.2
2017-Jan-18 12:08 347 6 gusting 12 17.2
2017-Jan-18 11:58 352 5 gusting 11 17.2
2017-Jan-18 11:37 17.2
2017-Jan-18 11:28 333 7 gusting 11 17.2
2017-Jan-18 11:08 340 5 gusting 7 17.2
2017-Jan-18 10:48 17.2
2017-Jan-18 10:38 347 5 gusting 10 17.2
2017-Jan-18 10:27 335 5 gusting 7 17.2
2017-Jan-18 10:08 325 2 gusting 7 17.8
2017-Jan-18 09:58 332 2 gusting 7 17.8
2017-Jan-18 09:27 308 1 gusting 6 17.8
2017-Jan-18 09:18 291 5 gusting 7 17.8
2017-Jan-18 08:47 304 5 gusting 10 18.3
2017-Jan-18 08:37 275 4 gusting 6 18.3
2017-Jan-18 08:18 299 5 gusting 7 18.9
2017-Jan-18 08:08 293 3 gusting 7 18.9
2017-Jan-18 07:57 318 2 gusting 5 18.9
2017-Jan-18 07:48 358 3 gusting 7 19.4
2017-Jan-18 07:38 351 2 gusting 7 19.4
2017-Jan-18 07:28 308 5 gusting 7 19.4
2017-Jan-18 07:18 330 4 gusting 7 20.0
2017-Jan-18 07:08 318 5 gusting 8 20.0
2017-Jan-18 06:57 323 4 gusting 6 20.0
2017-Jan-18 06:47 340 6 gusting 10 20.6
2017-Jan-18 06:27 321 7 gusting 10 21.1
2017-Jan-18 06:18 312 3 gusting 11 21.1
2017-Jan-18 06:08 339 6 gusting 11 21.1
2017-Jan-18 05:57 21.1
2017-Jan-18 05:48 272 6 gusting 11 21.7
2017-Jan-18 05:37 328 5 gusting 11 21.7
2017-Jan-18 05:18 271 6 gusting 13 21.7
2017-Jan-18 05:07 274 6 gusting 13 21.7
2017-Jan-18 04:57 297 8 gusting 13 22.2
2017-Jan-18 04:47 230 6 gusting 13 22.2
2017-Jan-18 04:38 325 7 gusting 12 21.7
2017-Jan-18 04:28 289 4 gusting 12 22.2
2017-Jan-18 04:07 281 8 gusting 15 21.7
2017-Jan-18 03:58 256 6 gusting 10 21.7
2017-Jan-18 03:37 258 8 gusting 17 21.7
2017-Jan-18 03:27 241 7 gusting 15 22.2
2017-Jan-18 03:18 321 8 gusting 15 22.2
2017-Jan-18 03:07 320 5 gusting 15 22.8
2017-Jan-18 02:57 248 6 gusting 15 22.8
2017-Jan-18 02:48 274 7 gusting 13 22.8
2017-Jan-18 02:28 289 10 gusting 17 23.3
2017-Jan-18 02:18 248 8 gusting 17 23.9
2017-Jan-18 02:08 207 6 gusting 18 23.9
2017-Jan-18 01:48 273 7 gusting 14 25.0
2017-Jan-18 01:37 250 10 gusting 15 24.4
2017-Jan-18 01:27 272 7 gusting 14 25.0
2017-Jan-18 01:08 253 10 gusting 15 25.6
2017-Jan-18 00:58 303 7 gusting 17 25.6
2017-Jan-18 00:48 266 6 gusting 17 25.0
2017-Jan-18 00:37 326 6 gusting 13 25.0
2017-Jan-18 00:28 310 8 gusting 13 23.9
2017-Jan-18 00:18 258 6 gusting 14 24.4
2017-Jan-18 00:08 309 6 gusting 13 23.9
2017-Jan-17 23:57 290 8 gusting 14 23.9
2017-Jan-17 23:48 275 7 gusting 13 23.9
2017-Jan-17 23:38 271 7 gusting 13 23.3
2017-Jan-17 23:27 281 7 gusting 13 22.8
2017-Jan-17 23:08 247 7 gusting 13 23.3